createdAt,value
2023-02-13T00:01:08.666Z,2.78
2023-02-13T00:03:36.827Z,2.83
2023-02-13T00:06:05.112Z,3.42
2023-02-13T00:08:33.207Z,3.05
2023-02-13T00:11:01.353Z,2.85
2023-02-13T00:13:29.453Z,3.67
2023-02-13T00:15:58.454Z,2.17
2023-02-13T00:18:28.958Z,3.60
2023-02-13T00:21:01.392Z,3.22
2023-02-13T00:23:32.002Z,2.33
2023-02-13T00:26:00.742Z,3.45
2023-02-13T00:28:29.146Z,3.33
2023-02-13T00:31:04.413Z,2.85
2023-02-13T00:33:34.090Z,3.75
2023-02-13T00:36:07.524Z,3.05
2023-02-13T00:38:35.648Z,3.15
2023-02-13T00:41:03.869Z,3.25
2023-02-13T00:43:32.527Z,3.28
2023-02-13T00:46:01.075Z,3.47
2023-02-13T00:48:30.678Z,3.75
2023-02-13T00:51:00.611Z,3.00
2023-02-13T00:53:28.859Z,3.58
2023-02-13T00:55:57.068Z,4.10
2023-02-13T00:58:25.451Z,3.08
2023-02-13T01:00:54.213Z,3.50
2023-02-13T01:03:24.006Z,4.32
2023-02-13T01:05:52.598Z,4.13
2023-02-13T01:08:22.443Z,5.03
2023-02-13T01:10:50.903Z,4.43
2023-02-13T01:13:19.789Z,4.00
2023-02-13T01:15:49.041Z,4.38
2023-02-13T01:18:18.177Z,4.05
2023-02-13T01:20:46.752Z,3.63
2023-02-13T01:23:14.798Z,3.65
2023-02-13T01:25:44.451Z,4.22
2023-02-13T01:28:12.572Z,3.92
2023-02-13T01:30:40.802Z,4.00
2023-02-13T01:33:08.969Z,4.25
2023-02-13T01:35:39.824Z,4.45
2023-02-13T01:38:08.096Z,3.88
2023-02-13T01:40:36.294Z,3.92
2023-02-13T01:43:07.188Z,4.15
2023-02-13T01:45:35.519Z,3.90
2023-02-13T01:48:07.038Z,3.47
2023-02-13T01:50:40.082Z,3.90
2023-02-13T01:53:12.665Z,3.85
2023-02-13T01:55:47.621Z,4.05
2023-02-13T01:58:21.919Z,2.78
2023-02-13T02:00:50.098Z,3.78
2023-02-13T02:03:22.777Z,2.75
2023-02-13T02:05:52.783Z,3.83
2023-02-13T02:08:21.351Z,3.30
2023-02-13T02:10:49.492Z,3.20
2023-02-13T02:13:22.442Z,3.85
2023-02-13T02:15:51.647Z,3.20
2023-02-13T02:18:21.632Z,2.05
2023-02-13T02:21:17.492Z,2.80
2023-02-13T02:24:20.030Z,2.45
2023-02-13T02:27:22.972Z,2.45
2023-02-13T02:30:18.869Z,2.55
2023-02-13T02:33:02.519Z,3.58
2023-02-13T02:35:40.084Z,2.05
2023-02-13T02:38:26.405Z,2.65
2023-02-13T02:41:02.336Z,2.88
2023-02-13T02:43:43.199Z,2.33
2023-02-13T02:46:18.093Z,2.25
2023-02-13T02:49:26.960Z,3.03
2023-02-13T02:52:04.460Z,2.75
2023-02-13T02:55:04.313Z,2.47
2023-02-13T02:57:48.847Z,2.25
2023-02-13T03:00:36.866Z,1.85
2023-02-13T03:03:27.970Z,2.03
2023-02-13T03:06:18.181Z,2.58
2023-02-13T03:09:11.380Z,2.47
2023-02-13T03:11:57.789Z,2.22
2023-02-13T03:14:28.300Z,2.47
2023-02-13T03:17:16.760Z,3.47
2023-02-13T03:20:11.604Z,2.40
2023-02-13T03:22:49.298Z,2.22
2023-02-13T03:25:30.235Z,2.38
2023-02-13T03:28:18.834Z,1.77
2023-02-13T03:30:58.757Z,2.33
2023-02-13T03:33:49.128Z,2.22
2023-02-13T03:36:46.328Z,2.67
2023-02-13T03:39:21.853Z,1.77
2023-02-13T03:41:55.250Z,2.40
2023-02-13T03:44:31.813Z,2.33
2023-02-13T03:47:02.666Z,2.78
2023-02-13T03:49:51.195Z,2.33
2023-02-13T03:52:25.922Z,2.65
2023-02-13T03:55:16.342Z,2.08
2023-02-13T03:58:04.169Z,2.30
2023-02-13T04:00:42.430Z,2.35
2023-02-13T04:03:18.000Z,2.58
2023-02-13T04:05:50.998Z,2.17
2023-02-13T04:08:19.211Z,3.28
2023-02-13T04:10:55.610Z,1.90
2023-02-13T04:13:29.769Z,1.92
2023-02-13T04:16:02.482Z,3.22
2023-02-13T04:18:33.262Z,3.17
2023-02-13T04:21:03.750Z,2.10
2023-02-13T04:23:31.857Z,1.92
2023-02-13T04:26:03.419Z,1.75
2023-02-13T04:28:33.615Z,1.60
2023-02-13T04:31:02.122Z,2.17
2023-02-13T04:33:30.470Z,1.70
2023-02-13T04:35:58.489Z,1.30
2023-02-13T04:38:26.504Z,1.20
2023-02-13T04:40:54.549Z,1.08
2023-02-13T04:43:25.322Z,1.67
2023-02-13T04:45:53.899Z,1.40
2023-02-13T04:48:21.966Z,1.30
2023-02-13T04:50:50.022Z,0.95
2023-02-13T04:53:18.109Z,1.40
2023-02-13T04:55:46.173Z,1.10
2023-02-13T04:58:14.414Z,1.17
2023-02-13T05:00:43.864Z,1.58
2023-02-13T05:03:13.991Z,1.17
2023-02-13T05:05:42.358Z,1.40
2023-02-13T05:08:10.674Z,1.83
2023-02-13T05:10:39.244Z,1.13
2023-02-13T05:13:07.483Z,1.13
2023-02-13T05:15:35.652Z,1.58
2023-02-13T05:18:05.341Z,1.10
2023-02-13T05:20:33.369Z,1.05
2023-02-13T05:23:19.170Z,1.40
2023-02-13T05:25:47.231Z,1.30
2023-02-13T05:28:29.249Z,1.00
2023-02-13T05:30:58.153Z,1.25
2023-02-13T05:33:28.283Z,1.63
2023-02-13T05:35:56.381Z,1.40
2023-02-13T05:38:24.605Z,0.90
2023-02-13T05:40:52.700Z,1.35
2023-02-13T05:43:21.324Z,0.98
2023-02-13T05:45:49.408Z,1.00
2023-02-13T05:48:17.527Z,1.20
2023-02-13T05:50:49.054Z,1.30
2023-02-13T05:53:17.147Z,1.60
2023-02-13T05:55:45.196Z,1.40
2023-02-13T05:58:13.342Z,1.60
2023-02-13T06:00:41.459Z,1.35
2023-02-13T06:03:09.534Z,1.08
2023-02-13T06:05:37.664Z,1.42
2023-02-13T06:08:07.095Z,0.77
2023-02-13T06:10:35.157Z,1.00
2023-02-13T06:13:03.216Z,1.00
2023-02-13T06:15:31.281Z,0.80
2023-02-13T06:17:59.427Z,0.82
2023-02-13T06:20:27.626Z,1.20
2023-02-13T06:22:55.677Z,1.00
2023-02-13T06:25:25.234Z,0.80
2023-02-13T06:27:53.421Z,0.77
2023-02-13T06:30:22.092Z,1.25
2023-02-13T06:32:50.545Z,0.70
2023-02-13T06:35:18.777Z,0.60
2023-02-13T06:37:46.894Z,1.90
2023-02-13T06:40:16.287Z,0.80
2023-02-13T06:42:46.726Z,1.27
2023-02-13T06:45:15.736Z,1.30
2023-02-13T06:47:44.722Z,0.85
2023-02-13T06:50:14.622Z,0.98
2023-02-13T06:52:47.838Z,0.88
2023-02-13T06:55:16.258Z,0.80
2023-02-13T06:57:46.491Z,1.10
2023-02-13T07:00:16.834Z,0.80
2023-02-13T07:02:47.136Z,1.20
2023-02-13T07:05:15.941Z,1.33
2023-02-13T07:07:44.569Z,0.88
2023-02-13T07:10:14.654Z,1.20
2023-02-13T07:12:43.692Z,1.48
2023-02-13T07:15:14.491Z,1.10
2023-02-13T07:17:42.717Z,3.03
2023-02-13T07:20:11.800Z,1.50
2023-02-13T07:22:39.975Z,5.18
2023-02-13T07:25:10.691Z,1.20
2023-02-13T07:27:38.796Z,1.30
2023-02-13T07:30:08.169Z,0.95
2023-02-13T07:32:37.799Z,1.65
2023-02-13T07:35:07.037Z,1.20
2023-02-13T07:37:35.262Z,1.30
2023-02-13T07:40:06.494Z,0.80
2023-02-13T07:42:35.112Z,1.27
2023-02-13T07:45:05.709Z,0.93
2023-02-13T07:47:35.148Z,1.35
2023-02-13T07:50:05.949Z,1.33
2023-02-13T07:52:34.289Z,1.42
2023-02-13T07:55:02.451Z,1.23
2023-02-13T07:57:31.560Z,1.25
2023-02-13T07:59:59.602Z,1.52
2023-02-13T08:02:27.681Z,1.33
2023-02-13T08:04:55.723Z,1.10
2023-02-13T08:07:25.177Z,1.48
2023-02-13T08:10:10.991Z,1.38
2023-02-13T08:12:39.186Z,1.45
2023-02-13T08:15:08.861Z,1.48
2023-02-13T08:17:36.954Z,4.25
2023-02-13T08:20:05.296Z,2.58
2023-02-13T08:22:34.819Z,1.17
2023-02-13T08:25:03.048Z,1.02
2023-02-13T08:27:31.272Z,1.00
2023-02-13T08:29:59.776Z,1.20
2023-02-13T08:32:27.985Z,1.38
2023-02-13T08:34:56.140Z,1.20
2023-02-13T08:37:25.577Z,1.25
2023-02-13T08:39:55.152Z,1.30
2023-02-13T08:42:23.394Z,4.05
2023-02-13T08:44:51.581Z,1.30
2023-02-13T08:47:19.811Z,1.38
2023-02-13T08:49:47.946Z,1.23
2023-02-13T08:52:16.035Z,1.30
2023-02-13T08:54:44.271Z,1.48
2023-02-13T08:57:13.815Z,1.30
2023-02-13T08:59:42.233Z,1.15
2023-02-13T09:02:11.926Z,1.40
2023-02-13T09:04:40.140Z,1.23
2023-02-13T09:07:08.317Z,1.23
2023-02-13T09:09:36.551Z,1.52
2023-02-13T09:12:05.084Z,1.30
2023-02-13T09:14:34.845Z,1.40
2023-02-13T09:17:03.448Z,1.42
2023-02-13T09:19:31.701Z,1.40
2023-02-13T09:21:59.928Z,1.67
2023-02-13T09:24:28.357Z,1.60
2023-02-13T09:26:57.203Z,1.35
2023-02-13T09:29:25.418Z,4.18
2023-02-13T09:31:54.975Z,1.30
2023-02-13T09:34:23.140Z,0.93
2023-02-13T09:36:53.763Z,1.27
2023-02-13T09:39:22.151Z,1.23
2023-02-13T09:41:53.153Z,1.00
2023-02-13T09:44:35.804Z,1.00
2023-02-13T09:47:09.170Z,1.15
2023-02-13T09:49:42.840Z,1.50
2023-02-13T09:52:13.989Z,0.95
2023-02-13T09:54:42.385Z,1.95
2023-02-13T09:57:18.485Z,1.08
2023-02-13T09:59:57.899Z,1.40
2023-02-13T10:02:43.854Z,0.80
2023-02-13T10:05:24.986Z,0.77
2023-02-13T10:08:01.455Z,1.08
2023-02-13T10:10:36.010Z,1.10
2023-02-13T10:13:17.080Z,1.10
2023-02-13T10:15:52.761Z,1.45
2023-02-13T10:18:26.004Z,1.60
2023-02-13T10:20:57.090Z,1.40
2023-02-13T10:23:29.697Z,1.50
2023-02-13T10:26:01.681Z,1.00
2023-02-13T10:28:38.534Z,1.60
2023-02-13T10:31:10.100Z,1.38
2023-02-13T10:33:47.737Z,1.15
2023-02-13T10:36:20.512Z,1.42
2023-02-13T10:38:57.548Z,1.48
2023-02-13T10:41:29.468Z,1.42
2023-02-13T10:44:16.917Z,1.17
2023-02-13T10:46:52.818Z,1.27
2023-02-13T10:49:41.961Z,1.13
2023-02-13T10:52:20.983Z,0.93
2023-02-13T10:55:03.600Z,1.58
2023-02-13T10:57:44.374Z,1.20
2023-02-13T11:00:19.494Z,1.75
2023-02-13T11:02:47.862Z,1.40
2023-02-13T11:05:20.690Z,1.17
2023-02-13T11:07:50.026Z,1.65
2023-02-13T11:10:20.975Z,1.42
2023-02-13T11:12:49.690Z,1.50
2023-02-13T11:15:29.546Z,1.38
2023-02-13T11:18:00.392Z,0.95
2023-02-13T11:20:35.320Z,1.55
2023-02-13T11:23:34.232Z,1.17
2023-02-13T11:26:04.593Z,0.95
2023-02-13T11:28:38.271Z,1.92
2023-02-13T11:31:23.731Z,0.98
2023-02-13T11:33:52.686Z,1.08
2023-02-13T11:36:28.050Z,1.13
2023-02-13T11:39:00.574Z,0.98
2023-02-13T11:41:31.044Z,1.30
2023-02-13T11:44:02.283Z,1.33
2023-02-13T11:46:32.250Z,1.80
2023-02-13T11:49:03.464Z,1.38
2023-02-13T11:51:44.441Z,1.35
2023-02-13T11:54:30.265Z,1.25
2023-02-13T11:57:04.782Z,1.30
2023-02-13T11:59:39.953Z,1.23
2023-02-13T12:02:17.674Z,1.60
2023-02-13T12:04:46.448Z,1.25
2023-02-13T12:07:20.132Z,1.50
2023-02-13T12:09:52.467Z,1.40
2023-02-13T12:12:26.829Z,1.42
2023-02-13T12:14:55.920Z,1.65
2023-02-13T12:17:31.681Z,1.42
2023-02-13T12:20:00.530Z,1.23
2023-02-13T12:22:41.504Z,1.60
2023-02-13T12:25:49.297Z,1.50
2023-02-13T12:28:21.419Z,1.63
2023-02-13T12:31:22.318Z,1.92
2023-02-13T12:34:26.651Z,1.60
2023-02-13T12:37:06.899Z,1.42
2023-02-13T12:39:41.364Z,1.33
2023-02-13T12:42:27.659Z,1.40
2023-02-13T12:45:16.437Z,1.70
2023-02-13T12:48:01.206Z,1.58
2023-02-13T12:50:39.900Z,1.80
2023-02-13T12:53:30.519Z,1.20
2023-02-13T12:56:26.829Z,1.60
2023-02-13T12:59:05.371Z,1.48
2023-02-13T13:02:16.440Z,1.48
2023-02-13T13:04:55.599Z,1.52
2023-02-13T13:07:59.159Z,1.65
2023-02-13T13:10:49.756Z,1.63
2023-02-13T13:13:33.691Z,1.70
2023-02-13T13:16:08.139Z,2.05
2023-02-13T13:18:46.350Z,1.55
2023-02-13T13:21:29.824Z,1.65
2023-02-13T13:24:05.010Z,1.50
2023-02-13T13:26:37.570Z,1.40
2023-02-13T13:29:13.015Z,1.52
2023-02-13T13:31:41.638Z,1.80
2023-02-13T13:34:19.254Z,1.73
2023-02-13T13:36:51.331Z,1.70
2023-02-13T13:39:32.127Z,1.70
2023-02-13T13:42:09.781Z,1.33
2023-02-13T13:45:16.225Z,1.75
2023-02-13T13:47:58.133Z,1.73
2023-02-13T13:50:28.504Z,1.92
2023-02-13T13:53:12.492Z,1.80
2023-02-13T13:56:09.309Z,1.85
2023-02-13T13:58:43.706Z,2.35
2023-02-13T14:01:26.754Z,1.70
2023-02-13T14:03:57.574Z,1.70
2023-02-13T14:06:29.371Z,2.03
2023-02-13T14:09:01.021Z,1.73
2023-02-13T14:11:47.521Z,1.88
2023-02-13T14:14:53.159Z,1.45
2023-02-13T14:17:54.178Z,1.70
2023-02-13T14:20:39.838Z,1.70
2023-02-13T14:23:15.965Z,1.85
2023-02-13T14:25:44.300Z,1.92
2023-02-13T14:28:23.280Z,1.80
2023-02-13T14:30:54.567Z,1.75
2023-02-13T14:33:28.284Z,1.98
2023-02-13T14:36:07.160Z,2.20
2023-02-13T14:38:36.720Z,2.33
2023-02-13T14:41:07.291Z,2.05
2023-02-13T14:43:39.274Z,2.00
2023-02-13T14:46:28.914Z,1.83
2023-02-13T14:49:01.550Z,2.08
2023-02-13T14:51:36.527Z,2.13
2023-02-13T14:54:10.453Z,1.70
2023-02-13T14:56:40.305Z,7.82
2023-02-13T14:59:15.447Z,7.45
2023-02-13T15:01:53.517Z,2.20
2023-02-13T15:04:31.013Z,2.30
2023-02-13T15:07:03.333Z,2.00
2023-02-13T15:09:37.630Z,2.70
2023-02-13T15:12:24.724Z,2.05
2023-02-13T15:14:52.977Z,2.08
2023-02-13T15:17:24.736Z,2.08
2023-02-13T15:19:54.929Z,2.50
2023-02-13T15:22:32.251Z,2.40
2023-02-13T15:25:01.021Z,3.28
2023-02-13T15:27:31.340Z,1.80
2023-02-13T15:30:02.344Z,2.78
2023-02-13T15:32:33.820Z,2.72
2023-02-13T15:35:02.482Z,2.47
2023-02-13T15:37:32.415Z,2.05
2023-02-13T15:40:17.610Z,2.33
2023-02-13T15:42:46.598Z,2.33
2023-02-13T15:45:19.500Z,2.17
2023-02-13T15:47:48.885Z,1.90
2023-02-13T15:50:19.351Z,2.45
2023-02-13T15:52:49.512Z,1.95
2023-02-13T15:55:22.864Z,2.70
2023-02-13T15:57:52.431Z,2.20
2023-02-13T16:00:25.689Z,2.47
2023-02-13T16:02:57.470Z,2.78
2023-02-13T16:05:39.599Z,2.30
2023-02-13T16:08:33.263Z,2.45
2023-02-13T16:11:27.916Z,2.97
2023-02-13T16:14:07.207Z,2.85
2023-02-13T16:16:43.206Z,1.80
2023-02-13T16:19:23.534Z,2.38
2023-02-13T16:21:52.633Z,2.85
2023-02-13T16:24:23.490Z,2.67
2023-02-13T16:26:51.922Z,2.83
2023-02-13T16:29:22.512Z,2.53
2023-02-13T16:31:53.136Z,2.45
2023-02-13T16:34:28.685Z,2.42
2023-02-13T16:36:57.886Z,2.33
2023-02-13T16:39:31.814Z,2.63
2023-02-13T16:42:01.589Z,2.85
2023-02-13T16:44:31.233Z,2.72
2023-02-13T16:47:01.638Z,3.17
2023-02-13T16:49:32.688Z,2.42
2023-02-13T16:52:12.549Z,2.60
2023-02-13T16:54:55.653Z,2.42
2023-02-13T16:57:30.167Z,1.95
2023-02-13T17:00:03.249Z,2.58
2023-02-13T17:02:33.103Z,2.72
2023-02-13T17:05:18.241Z,2.20
2023-02-13T17:07:48.317Z,2.97
2023-02-13T17:10:22.500Z,3.13
2023-02-13T17:12:51.817Z,2.35
2023-02-13T17:15:22.712Z,2.70
2023-02-13T17:17:51.713Z,2.80
2023-02-13T17:20:22.159Z,2.92
2023-02-13T17:22:52.225Z,3.38
2023-02-13T17:25:23.625Z,4.28
2023-02-13T17:27:52.958Z,4.05
2023-02-13T17:30:22.972Z,3.28
2023-02-13T17:32:55.062Z,3.70
2023-02-13T17:35:23.340Z,4.13
2023-02-13T17:37:51.612Z,3.47
2023-02-13T17:40:23.609Z,3.33
2023-02-13T17:42:54.106Z,4.05
2023-02-13T17:45:25.348Z,3.53
2023-02-13T17:47:53.681Z,2.92
2023-02-13T17:50:22.396Z,3.75
2023-02-13T17:52:50.758Z,3.15
2023-02-13T17:55:22.313Z,3.70
2023-02-13T17:57:53.073Z,3.13
2023-02-13T18:00:22.434Z,3.30
2023-02-13T18:02:51.599Z,3.88
2023-02-13T18:05:20.818Z,3.97
2023-02-13T18:07:49.473Z,3.47
2023-02-13T18:10:19.652Z,3.22
2023-02-13T18:12:49.116Z,3.42
2023-02-13T18:15:19.096Z,3.20
2023-02-13T18:17:47.805Z,3.40
2023-02-13T18:20:18.473Z,5.05
2023-02-13T18:22:46.931Z,4.57
2023-02-13T18:25:15.262Z,3.80
2023-02-13T18:27:43.664Z,3.22
2023-02-13T18:30:15.445Z,3.80
2023-02-13T18:32:45.342Z,2.42
2023-02-13T18:35:14.610Z,3.40
2023-02-13T18:37:42.706Z,2.97
2023-02-13T18:40:12.588Z,2.78
2023-02-13T18:42:40.609Z,2.85
2023-02-13T18:45:09.335Z,3.53
2023-02-13T18:47:37.619Z,4.05
2023-02-13T18:50:08.479Z,3.10
2023-02-13T18:52:36.655Z,3.60
2023-02-13T18:55:06.849Z,3.53
2023-02-13T18:57:35.002Z,3.70
2023-02-13T19:00:03.573Z,3.63
2023-02-13T19:02:32.979Z,3.38
2023-02-13T19:05:01.163Z,3.45
2023-02-13T19:07:30.724Z,6.68
2023-02-13T19:09:58.854Z,5.18
2023-02-13T19:12:27.051Z,3.83
2023-02-13T19:14:55.417Z,4.00
2023-02-13T19:17:23.571Z,4.32
2023-02-13T19:19:51.809Z,4.65
2023-02-13T19:22:20.007Z,4.63
2023-02-13T19:24:49.687Z,3.55
2023-02-13T19:27:20.983Z,3.25
2023-02-13T19:29:49.352Z,3.20
2023-02-13T19:32:17.737Z,3.35
2023-02-13T19:34:46.963Z,2.60
2023-02-13T19:37:15.086Z,3.35
2023-02-13T19:39:44.000Z,3.40
2023-02-13T19:42:13.722Z,3.50
2023-02-13T19:44:41.846Z,3.43
2023-02-13T19:47:09.944Z,3.85
2023-02-13T19:49:38.097Z,3.03
2023-02-13T19:52:06.259Z,3.58
2023-02-13T19:54:34.506Z,3.97
2023-02-13T19:57:05.700Z,3.00
2023-02-13T19:59:35.172Z,2.90
2023-02-13T20:02:03.309Z,3.17
2023-02-13T20:04:32.288Z,3.43
2023-02-13T20:07:00.451Z,2.73
2023-02-13T20:09:28.604Z,3.43
2023-02-13T20:11:56.798Z,3.00
2023-02-13T20:14:24.872Z,3.37
2023-02-13T20:16:54.337Z,3.23
2023-02-13T20:19:22.577Z,2.90
2023-02-13T20:21:50.986Z,4.27
2023-02-13T20:24:19.155Z,3.90
2023-02-13T20:26:47.963Z,3.17
2023-02-13T20:29:16.616Z,3.67
2023-02-13T20:31:44.888Z,4.10
2023-02-13T20:34:14.589Z,4.27
2023-02-13T20:36:42.804Z,3.97
2023-02-13T20:39:11.550Z,3.70
2023-02-13T20:41:39.965Z,3.87
2023-02-13T20:44:11.784Z,3.40
2023-02-13T20:46:41.082Z,2.80
2023-02-13T20:49:11.340Z,3.23
2023-02-13T20:51:40.765Z,3.97
2023-02-13T20:54:08.968Z,3.30
2023-02-13T20:56:37.206Z,3.47
2023-02-13T20:59:06.383Z,3.00
2023-02-13T21:01:40.357Z,2.63
2023-02-13T21:04:10.103Z,3.53
2023-02-13T21:06:40.906Z,2.80
2023-02-13T21:09:10.518Z,3.60
2023-02-13T21:11:40.051Z,3.50
2023-02-13T21:14:08.530Z,2.23
2023-02-13T21:16:38.874Z,2.13
2023-02-13T21:19:09.226Z,2.30
2023-02-13T21:21:38.648Z,2.20
2023-02-13T21:24:11.129Z,2.60
2023-02-13T21:26:39.548Z,2.13
2023-02-13T21:29:07.973Z,2.97
2023-02-13T21:31:37.678Z,3.03
2023-02-13T21:34:07.514Z,3.00
2023-02-13T21:36:36.844Z,2.37
2023-02-13T21:39:05.619Z,2.80
2023-02-13T21:41:35.289Z,3.00
2023-02-13T21:44:03.376Z,2.33
2023-02-13T21:46:32.957Z,2.30
2023-02-13T21:49:02.901Z,2.13
2023-02-13T21:51:33.211Z,3.47
2023-02-13T21:54:01.912Z,2.90
2023-02-13T21:56:32.144Z,2.40
2023-02-13T21:59:01.887Z,2.93
2023-02-13T22:01:32.008Z,3.40
2023-02-13T22:04:02.109Z,2.83
2023-02-13T22:06:31.831Z,3.13
2023-02-13T22:09:02.105Z,2.80
2023-02-13T22:11:30.945Z,3.17
2023-02-13T22:14:02.635Z,2.50
2023-02-13T22:16:34.199Z,4.17
2023-02-13T22:19:02.835Z,3.10
2023-02-13T22:21:33.140Z,3.07
2023-02-13T22:24:02.117Z,2.80
2023-02-13T22:26:31.809Z,2.67
2023-02-13T22:29:04.132Z,2.43
2023-02-13T22:31:32.338Z,2.67
2023-02-13T22:34:05.278Z,3.07
2023-02-13T22:36:34.370Z,2.73
2023-02-13T22:39:02.532Z,2.40
2023-02-13T22:41:30.953Z,2.50
2023-02-13T22:43:59.307Z,2.67
2023-02-13T22:46:31.958Z,2.77
2023-02-13T22:49:00.737Z,2.67
2023-02-13T22:51:30.942Z,3.03
2023-02-13T22:53:59.908Z,3.07
2023-02-13T22:56:29.523Z,2.43
2023-02-13T22:58:57.986Z,2.93
2023-02-13T23:01:29.606Z,2.47
2023-02-13T23:03:57.887Z,2.30
2023-02-13T23:06:26.940Z,2.37
2023-02-13T23:08:55.389Z,2.90
2023-02-13T23:11:43.169Z,2.77
2023-02-13T23:14:11.466Z,2.53
2023-02-13T23:16:59.229Z,3.70
2023-02-13T23:19:27.676Z,2.43
2023-02-13T23:21:55.958Z,3.40
2023-02-13T23:24:24.071Z,2.93
2023-02-13T23:26:52.212Z,3.07
2023-02-13T23:29:20.311Z,2.10
2023-02-13T23:31:49.882Z,2.87
2023-02-13T23:34:18.164Z,2.47
2023-02-13T23:36:46.259Z,3.73
2023-02-13T23:39:14.739Z,3.83
2023-02-13T23:41:42.826Z,2.37
2023-02-13T23:44:10.894Z,2.77
2023-02-13T23:46:39.012Z,2.10
2023-02-13T23:49:08.505Z,2.93
2023-02-13T23:51:36.612Z,3.77
2023-02-13T23:54:05.011Z,2.50
2023-02-13T23:56:35.244Z,3.13
2023-02-13T23:59:03.273Z,2.57
